Portada
METAR-TAF:

METAR-TAF

Aeroports :

Haifa, Israel

latitud: 32-48N, longitud: 035-02E, altitud: 8 m

Observació

L'informe es va fer fa 10 hores i 15 minuts, a les 16:50 UTC
Vent 8 kt del Oest
Temperatura 17°C
Humitat 63%
Pressió 1014 hPa
Visibilitat 10 km o més
Núvols disperses a una alçada de 2900 ft

METAR: LLHA 281650Z 28008KT 9999 SCT029 17/10 Q1014

Hora: 06:05 (03:05 UTC)

Pronòstic

L'informe es va fer fa 4 hores i 1 minuts, a les 23:04 UTC
Pronòstic vàlid del 29 a les 00 UTC al 29 a les 24 UTC
Vent 7 kt del Oest
Visibilitat 10 km o més
Núvols disperses a una alçada de 2500 ft
Evolucionant progressivament
l' 29 a les 04 UTC al 29 a les 06 UTC
Vent 12 kt del Sud-Oest
Evolucionant progressivament
l' 29 a les 15 UTC al 29 a les 17 UTC
Vent 6 kt del Sud
Escasses núvols a una alçada de 3000 ft

TAF: LLHA 282304Z 2900/2924 27007KT 9999 SCT025 BECMG 2904/2906 23012KT BECMG 2915/2917 17006KT FEW030 TX20/2911Z TN15/2903Z

Observacions i pronòstics meteorològics de més de 4000 aeroports (METAR i TAF).

Les estacions disponibles són els punts grocs i vermells al mapa.

Posi el ratolí al punt desitjat per veure el nom de l'estació.

Feu clic per veure les observacions i els pronòstics meteorològics.

Per canviar el mapa: feu clic els botons verds amb una creu de color negre per apropar; al botó verd amb un guió per allunyar la imatge; o en les fletxes verdes per a mapes adjacents.


METAR-TAF: